createdAt,value
2018-09-29T13:08:47.862Z,32.80
2018-09-29T13:11:20.634Z,31.50
2018-09-29T13:13:53.401Z,30.80
2018-09-29T13:16:26.290Z,30.40
2018-09-29T13:18:59.086Z,31.20
2018-09-29T13:21:31.902Z,31.30
2018-09-29T13:24:04.838Z,32.40
2018-09-29T13:26:37.572Z,31.80
2018-09-29T13:29:11.535Z,32.40
2018-09-29T13:31:47.902Z,32.90
2018-09-29T13:34:20.831Z,33.10
2018-09-29T13:36:53.642Z,33.30
2018-09-29T13:39:26.440Z,32.40
2018-09-29T13:41:59.250Z,33.00
2018-09-29T13:44:35.494Z,32.10
2018-09-29T13:47:08.330Z,30.90
2018-09-29T13:49:41.106Z,30.90
2018-09-29T13:52:13.834Z,32.10
2018-09-29T13:54:46.738Z,31.10
2018-09-29T13:57:19.638Z,32.50
2018-09-29T13:59:52.505Z,33.20
2018-09-29T14:02:25.418Z,32.40
2018-09-29T14:04:58.186Z,32.60
2018-09-29T14:07:31.021Z,32.70
2018-09-29T14:10:03.799Z,32.70
2018-09-29T14:12:36.730Z,32.70
2018-09-29T14:15:09.636Z,32.20
2018-09-29T14:17:42.719Z,33.60
2018-09-29T14:20:15.618Z,32.90
2018-09-29T14:22:48.386Z,33.00
2018-09-29T14:25:21.169Z,33.40
2018-09-29T14:27:53.973Z,34.30
2018-09-29T14:30:26.790Z,34.80
2018-09-29T14:32:59.487Z,34.30
2018-09-29T14:35:32.289Z,33.80
2018-09-29T14:38:05.087Z,33.50
2018-09-29T14:40:37.909Z,34.10
2018-09-29T14:43:10.729Z,34.60
2018-09-29T14:45:43.512Z,34.70
2018-09-29T14:48:16.317Z,34.70
2018-09-29T14:50:49.134Z,34.20
2018-09-29T14:53:21.906Z,35.40
2018-09-29T14:56:23.571Z,35.90
2018-09-29T14:58:58.050Z,34.50
2018-09-29T15:01:30.802Z,34.50
2018-09-29T15:04:03.691Z,34.70
2018-09-29T15:06:36.650Z,35.30
2018-09-29T15:09:10.641Z,35.70
2018-09-29T15:11:43.434Z,37.30
2018-09-29T15:14:16.255Z,39.80
2018-09-29T15:16:49.397Z,39.60
2018-09-29T15:19:22.254Z,40.30
2018-09-29T15:21:54.982Z,40.30
2018-09-29T15:24:28.063Z,40.20
2018-09-29T15:27:00.880Z,39.90
2018-09-29T15:29:33.661Z,41.00
2018-09-29T15:32:06.603Z,41.90
2018-09-29T15:34:39.421Z,42.00
2018-09-29T15:37:12.162Z,42.30
2018-09-29T15:39:45.161Z,41.80
2018-09-29T15:42:18.056Z,41.50
2018-09-29T15:44:50.879Z,41.20
2018-09-29T15:47:23.778Z,41.60
2018-09-29T15:49:56.878Z,42.30
2018-09-29T15:52:29.827Z,42.90
2018-09-29T15:55:02.730Z,43.90
2018-09-29T15:57:35.622Z,44.00
2018-09-29T16:00:08.502Z,45.10
2018-09-29T16:02:41.410Z,45.80
2018-09-29T16:05:14.289Z,46.20
2018-09-29T16:07:47.011Z,47.20
2018-09-29T16:10:19.758Z,47.40
2018-09-29T16:12:52.507Z,48.40
2018-09-29T16:15:25.330Z,48.10
2018-09-29T16:17:58.148Z,48.00
2018-09-29T16:20:30.841Z,48.50
2018-09-29T16:23:03.700Z,48.40
2018-09-29T16:25:36.461Z,48.50
2018-09-29T16:28:09.234Z,49.60
2018-09-29T16:30:42.007Z,51.00
2018-09-29T16:33:14.874Z,52.80
2018-09-29T16:35:47.870Z,54.10
2018-09-29T16:38:20.643Z,55.00
2018-09-29T16:40:53.436Z,56.10
2018-09-29T16:43:26.340Z,57.20
2018-09-29T16:45:59.146Z,58.00
2018-09-29T16:48:32.037Z,58.70
2018-09-29T16:51:04.858Z,59.20
2018-09-29T16:53:37.854Z,60.30
2018-09-29T16:56:10.550Z,61.20
2018-09-29T16:58:43.427Z,62.50
2018-09-29T17:01:16.189Z,63.40
2018-09-29T17:03:49.226Z,64.50
2018-09-29T17:06:22.171Z,65.30
2018-09-29T17:08:54.947Z,65.90
2018-09-29T17:11:27.977Z,66.60
2018-09-29T17:14:00.858Z,67.40
2018-09-29T17:16:33.999Z,68.60
2018-09-29T17:19:07.032Z,69.60
2018-09-29T17:21:39.843Z,70.70
2018-09-29T17:24:12.635Z,71.60
2018-09-29T17:26:45.444Z,72.30
2018-09-29T17:29:18.246Z,72.80
2018-09-29T17:31:51.023Z,72.50
2018-09-29T17:34:23.926Z,73.90
2018-09-29T17:36:56.689Z,74.30
2018-09-29T17:39:29.510Z,75.00
2018-09-29T17:42:02.561Z,76.70
2018-09-29T17:44:35.699Z,77.30
2018-09-29T17:47:08.585Z,78.10
2018-09-29T17:49:41.433Z,78.80
2018-09-29T17:52:14.171Z,79.80
2018-09-29T17:54:47.113Z,80.30
2018-09-29T17:57:20.157Z,80.90
2018-09-29T17:59:53.061Z,81.60
2018-09-29T18:02:25.758Z,82.20
2018-09-29T18:04:59.093Z,82.70
2018-09-29T18:07:31.971Z,83.60
2018-09-29T18:10:04.730Z,84.10
2018-09-29T18:12:37.690Z,84.70
2018-09-29T18:15:10.462Z,85.20
2018-09-29T18:17:43.447Z,85.70
2018-09-29T18:20:16.398Z,86.60
2018-09-29T18:22:49.106Z,87.30
2018-09-29T18:25:21.885Z,87.40
2018-09-29T18:27:54.832Z,87.50
2018-09-29T18:30:27.705Z,88.50
2018-09-29T18:33:00.422Z,89.90
2018-09-29T18:35:33.251Z,90.20
2018-09-29T18:38:06.050Z,90.70
2018-09-29T18:40:39.074Z,91.30
2018-09-29T18:43:11.951Z,91.60
2018-09-29T18:45:44.950Z,92.10
2018-09-29T18:48:17.702Z,92.30
2018-09-29T18:50:50.406Z,92.60
2018-09-29T18:53:23.319Z,92.70
2018-09-29T18:55:56.233Z,93.10
2018-09-29T18:58:29.041Z,93.20
2018-09-29T19:01:01.742Z,93.60
2018-09-29T19:03:34.689Z,94.10
2018-09-29T19:06:07.688Z,94.40
2018-09-29T19:08:40.637Z,94.90
2018-09-29T19:11:13.544Z,95.30
2018-09-29T19:13:46.334Z,95.40
2018-09-29T19:16:19.053Z,95.70
2018-09-29T19:18:51.863Z,96.10
2018-09-29T19:21:24.530Z,96.40
2018-09-29T19:23:57.622Z,96.50
2018-09-29T19:26:30.734Z,96.70
2018-09-29T19:29:03.603Z,96.90
2018-09-29T19:31:36.463Z,97.10
2018-09-29T19:34:09.223Z,96.90
2018-09-29T19:36:42.017Z,96.80
2018-09-29T19:39:14.818Z,96.80
2018-09-29T19:41:47.537Z,96.80
2018-09-29T19:44:20.359Z,96.90
2018-09-29T19:46:53.257Z,96.90
2018-09-29T19:49:26.028Z,97.00
2018-09-29T19:51:58.842Z,97.00
2018-09-29T19:54:31.753Z,97.20
2018-09-29T19:57:04.452Z,97.40
2018-09-29T19:59:37.313Z,97.90
2018-09-29T20:02:10.062Z,98.20
2018-09-29T20:04:42.887Z,98.50
2018-09-29T20:07:15.683Z,98.90
2018-09-29T20:09:48.483Z,99.10
2018-09-29T20:12:21.205Z,99.40
2018-09-29T20:14:53.934Z,99.90
2018-09-29T20:17:26.774Z,99.90
2018-09-29T20:19:59.780Z,99.90
2018-09-29T20:22:32.714Z,99.90
2018-09-29T20:25:05.521Z,99.90
2018-09-29T20:27:38.270Z,99.90
2018-09-29T20:30:11.063Z,99.90
2018-09-29T20:32:43.955Z,99.90
2018-09-29T20:35:16.681Z,99.90
2018-09-29T20:37:49.490Z,99.90
2018-09-29T20:40:22.341Z,99.90
2018-09-29T20:42:55.138Z,99.90
2018-09-29T20:45:27.926Z,99.90
2018-09-29T20:48:00.839Z,99.90
2018-09-29T20:50:33.952Z,99.90
2018-09-29T20:53:06.658Z,99.90
2018-09-29T20:55:39.422Z,99.90
2018-09-29T20:58:12.301Z,99.90
2018-09-29T21:00:45.142Z,99.90
2018-09-29T21:03:18.010Z,99.90
2018-09-29T21:05:50.757Z,99.90
2018-09-29T21:08:23.707Z,99.90
2018-09-29T21:10:56.603Z,99.90
2018-09-29T21:13:29.622Z,99.90
2018-09-29T21:16:02.398Z,99.90
2018-09-29T21:18:35.162Z,99.90
2018-09-29T21:21:07.910Z,99.90
2018-09-29T21:23:40.838Z,99.90
2018-09-29T21:26:13.616Z,99.90
2018-09-29T21:28:46.414Z,99.90
2018-09-29T21:31:19.221Z,99.90
2018-09-29T21:33:52.213Z,99.90
2018-09-29T21:36:25.047Z,99.90
2018-09-29T21:38:57.962Z,99.90
2018-09-29T21:41:30.801Z,99.90
2018-09-29T21:44:03.602Z,99.90
2018-09-29T21:46:36.365Z,99.90
2018-09-29T21:49:09.241Z,99.90
2018-09-29T21:51:42.110Z,99.90
2018-09-29T21:54:14.903Z,99.90
2018-09-29T21:56:47.770Z,99.90
2018-09-29T21:59:20.678Z,99.90
2018-09-29T22:01:53.410Z,99.90
2018-09-29T22:04:26.272Z,99.90
2018-09-29T22:06:59.122Z,99.90
2018-09-29T22:09:32.154Z,99.90
2018-09-29T22:12:04.910Z,99.90
2018-09-29T22:14:37.657Z,99.90
2018-09-29T22:17:10.462Z,99.90
2018-09-29T22:19:43.378Z,99.90
2018-09-29T22:22:16.178Z,99.90
2018-09-29T22:24:48.932Z,99.90
2018-09-29T22:27:21.771Z,99.90
2018-09-29T22:29:54.565Z,99.90
2018-09-29T22:32:27.317Z,99.90
2018-09-29T22:35:00.079Z,99.90
2018-09-29T22:37:32.809Z,99.90
2018-09-29T22:40:05.610Z,99.90
2018-09-29T22:42:38.550Z,99.90
2018-09-29T22:45:11.416Z,99.90
2018-09-29T22:47:44.178Z,99.90
2018-09-29T22:50:16.982Z,99.90
2018-09-29T22:52:49.689Z,99.90
2018-09-29T22:55:22.398Z,99.90
2018-09-29T22:57:55.173Z,99.90
2018-09-29T23:00:27.917Z,99.90
2018-09-29T23:03:00.701Z,99.90
2018-09-29T23:05:33.505Z,99.90
2018-09-29T23:08:06.294Z,99.90
2018-09-29T23:10:39.013Z,99.90
2018-09-29T23:13:11.786Z,99.90
2018-09-29T23:15:44.658Z,99.90
2018-09-29T23:18:17.382Z,99.90
2018-09-29T23:20:50.150Z,99.90
2018-09-29T23:23:23.046Z,99.90
2018-09-29T23:25:56.011Z,99.90
2018-09-29T23:28:28.782Z,99.90
2018-09-29T23:31:01.738Z,99.90
2018-09-29T23:33:34.481Z,99.90
2018-09-29T23:36:07.195Z,99.90
2018-09-29T23:38:39.922Z,99.90
2018-09-29T23:41:12.615Z,99.90
2018-09-29T23:43:45.469Z,99.90
2018-09-29T23:46:18.219Z,99.90
2018-09-29T23:48:51.037Z,99.90
2018-09-29T23:51:23.827Z,99.90
2018-09-29T23:53:56.762Z,99.90
2018-09-29T23:56:29.610Z,99.90
2018-09-29T23:59:02.381Z,99.90
